KCHD/CHD METAR and TAF weather

Enter ICAO airport designator
Station Type Date Time Source
KCHD METAR 2019/10/16 18:47 UTC NOAA

KCHD 161847Z 03005KT 10SM SCT250 33/00 A2995


Station Type Date Time Source
KCHD Decoded METAR 2019/10/16 18:47 UTC NOAA

Chandler, Chandler Municipal Airport, AZ, United States (KCHD) 33-16-09N 111-48-40W
Oct 16, 2019 - 02:47 PM EDT / 2019.10.16 1847 UTC
Wind: from the NNE (030 degrees) at 6 MPH (5 KT):0
Visibility: 10 mile(s):0
Sky conditions: partly cloudy
Temperature: 91 F (33 C)
Dew Point: 32 F (0 C)
Relative Humidity: 12%
Pressure (altimeter): 29.95 in. Hg (1014 hPa)
ob: KCHD 161847Z 03005KT 10SM SCT250 33/00 A2995
cycle: 19

Station Type Date Time Source
KCHD TAF UTC NOAA

Error!

Example: see airport list